sensor_id;sensor_type;location;lat;lon;timestamp;pressure;altitude;pressure_sealevel;temperature;humidity
10539;BME280;5317;49.048;8.468;2022-07-23T00:00:25;112049.66;;;-142.21;76.50
10539;BME280;5317;49.048;8.468;2022-07-23T00:02:53;112049.66;;;-142.21;76.39
10539;BME280;5317;49.048;8.468;2022-07-23T00:05:21;112049.66;;;-142.21;76.29
10539;BME280;5317;49.048;8.468;2022-07-23T00:07:48;112049.66;;;-142.21;75.22
10539;BME280;5317;49.048;8.468;2022-07-23T00:10:15;112049.66;;;-142.21;74.91
10539;BME280;5317;49.048;8.468;2022-07-23T00:12:43;112049.66;;;-142.21;74.58
10539;BME280;5317;49.048;8.468;2022-07-23T00:15:10;112049.66;;;-142.21;73.13
10539;BME280;5317;49.048;8.468;2022-07-23T00:17:38;112049.66;;;-142.21;72.54
10539;BME280;5317;49.048;8.468;2022-07-23T00:20:08;112049.66;;;-142.21;71.65
10539;BME280;5317;49.048;8.468;2022-07-23T00:22:35;112049.66;;;-142.21;70.65
10539;BME280;5317;49.048;8.468;2022-07-23T00:25:02;112049.66;;;-142.21;69.98
10539;BME280;5317;49.048;8.468;2022-07-23T00:27:30;112049.66;;;-142.21;67.92
10539;BME280;5317;49.048;8.468;2022-07-23T00:29:57;112049.66;;;-142.21;66.98
10539;BME280;5317;49.048;8.468;2022-07-23T00:32:26;112049.66;;;-142.21;66.25
10539;BME280;5317;49.048;8.468;2022-07-23T00:34:53;112049.66;;;-142.21;66.04
10539;BME280;5317;49.048;8.468;2022-07-23T00:37:22;112049.66;;;-142.21;66.02
10539;BME280;5317;49.048;8.468;2022-07-23T00:39:49;112049.66;;;-142.21;65.34
10539;BME280;5317;49.048;8.468;2022-07-23T00:42:16;112049.66;;;-142.21;64.62
10539;BME280;5317;49.048;8.468;2022-07-23T00:44:43;112049.66;;;-142.21;64.51
10539;BME280;5317;49.048;8.468;2022-07-23T00:47:10;112049.66;;;-142.21;64.08
10539;BME280;5317;49.048;8.468;2022-07-23T00:49:37;112049.66;;;-142.21;63.71
10539;BME280;5317;49.048;8.468;2022-07-23T00:52:05;112049.66;;;-142.21;64.11
10539;BME280;5317;49.048;8.468;2022-07-23T00:54:34;112049.66;;;-142.21;63.58
10539;BME280;5317;49.048;8.468;2022-07-23T00:57:01;112049.66;;;-142.21;63.67
10539;BME280;5317;49.048;8.468;2022-07-23T00:59:29;112049.66;;;-142.21;63.54
10539;BME280;5317;49.048;8.468;2022-07-23T01:01:57;112049.66;;;-142.21;63.44
10539;BME280;5317;49.048;8.468;2022-07-23T01:04:24;112049.66;;;-142.21;63.36
10539;BME280;5317;49.048;8.468;2022-07-23T01:06:52;112049.66;;;-142.21;63.32
10539;BME280;5317;49.048;8.468;2022-07-23T01:09:19;112049.66;;;-142.21;63.11
10539;BME280;5317;49.048;8.468;2022-07-23T01:11:48;112049.66;;;-142.21;62.78
10539;BME280;5317;49.048;8.468;2022-07-23T01:14:18;112049.66;;;-142.21;62.76
10539;BME280;5317;49.048;8.468;2022-07-23T01:16:48;112049.66;;;-142.21;62.53
10539;BME280;5317;49.048;8.468;2022-07-23T01:19:16;112049.66;;;-142.21;61.97
10539;BME280;5317;49.048;8.468;2022-07-23T01:21:47;112049.66;;;-142.21;61.49
10539;BME280;5317;49.048;8.468;2022-07-23T01:24:17;112049.66;;;-142.21;61.66
10539;BME280;5317;49.048;8.468;2022-07-23T01:26:46;112049.66;;;-142.21;62.08
10539;BME280;5317;49.048;8.468;2022-07-23T01:29:15;112049.66;;;-142.21;62.41
10539;BME280;5317;49.048;8.468;2022-07-23T01:31:43;112049.66;;;-142.21;63.43
10539;BME280;5317;49.048;8.468;2022-07-23T01:34:10;112049.66;;;-142.21;64.37
10539;BME280;5317;49.048;8.468;2022-07-23T01:36:38;112049.66;;;-142.21;64.90
10539;BME280;5317;49.048;8.468;2022-07-23T01:39:07;112049.66;;;-142.21;65.51
10539;BME280;5317;49.048;8.468;2022-07-23T01:41:36;112049.66;;;-142.21;65.65
10539;BME280;5317;49.048;8.468;2022-07-23T01:44:03;112049.66;;;-142.21;65.77
10539;BME280;5317;49.048;8.468;2022-07-23T01:46:30;112049.66;;;-142.21;66.11
10539;BME280;5317;49.048;8.468;2022-07-23T01:48:57;112049.66;;;-142.21;66.69
10539;BME280;5317;49.048;8.468;2022-07-23T01:51:24;112049.66;;;-142.21;67.82
10539;BME280;5317;49.048;8.468;2022-07-23T01:53:51;112049.66;;;-142.21;68.03
10539;BME280;5317;49.048;8.468;2022-07-23T01:56:18;112049.66;;;-142.21;68.11
10539;BME280;5317;49.048;8.468;2022-07-23T01:58:48;112049.66;;;-142.21;66.40
10539;BME280;5317;49.048;8.468;2022-07-23T02:01:15;112049.66;;;-142.21;66.52
10539;BME280;5317;49.048;8.468;2022-07-23T02:03:42;112049.66;;;-142.21;67.26
10539;BME280;5317;49.048;8.468;2022-07-23T02:06:09;112049.66;;;-142.21;67.60
10539;BME280;5317;49.048;8.468;2022-07-23T02:08:36;112049.66;;;-142.21;67.93
10539;BME280;5317;49.048;8.468;2022-07-23T02:11:03;112049.66;;;-142.21;68.53
10539;BME280;5317;49.048;8.468;2022-07-23T02:13:30;112049.66;;;-142.21;69.52
10539;BME280;5317;49.048;8.468;2022-07-23T02:15:59;112049.66;;;-142.21;70.64
10539;BME280;5317;49.048;8.468;2022-07-23T02:18:26;112049.66;;;-142.21;70.89
10539;BME280;5317;49.048;8.468;2022-07-23T02:20:53;112049.66;;;-142.21;71.50
10539;BME280;5317;49.048;8.468;2022-07-23T02:23:20;112049.66;;;-142.21;72.60
10539;BME280;5317;49.048;8.468;2022-07-23T02:25:47;112049.66;;;-142.21;73.20
10539;BME280;5317;49.048;8.468;2022-07-23T02:28:15;112049.66;;;-142.21;73.31
10539;BME280;5317;49.048;8.468;2022-07-23T02:30:42;112049.66;;;-142.21;74.00
10539;BME280;5317;49.048;8.468;2022-07-23T02:33:10;112049.66;;;-142.21;74.74
10539;BME280;5317;49.048;8.468;2022-07-23T02:35:38;112049.66;;;-142.21;75.91
10539;BME280;5317;49.048;8.468;2022-07-23T02:38:05;112049.66;;;-142.21;75.12
10539;BME280;5317;49.048;8.468;2022-07-23T02:40:32;112049.66;;;-142.21;75.71
10539;BME280;5317;49.048;8.468;2022-07-23T02:42:59;112049.66;;;-142.21;77.35
10539;BME280;5317;49.048;8.468;2022-07-23T02:45:26;112049.66;;;-142.21;78.16
10539;BME280;5317;49.048;8.468;2022-07-23T02:47:53;112049.66;;;-142.21;78.82
10539;BME280;5317;49.048;8.468;2022-07-23T02:50:21;112049.66;;;-142.21;79.96
10539;BME280;5317;49.048;8.468;2022-07-23T02:52:51;112049.66;;;-142.21;79.80
10539;BME280;5317;49.048;8.468;2022-07-23T02:55:18;112049.66;;;-142.21;79.16
10539;BME280;5317;49.048;8.468;2022-07-23T02:57:48;112049.66;;;-142.21;79.05
10539;BME280;5317;49.048;8.468;2022-07-23T03:00:16;112049.66;;;-142.21;79.55
10539;BME280;5317;49.048;8.468;2022-07-23T03:02:43;112049.66;;;-142.21;79.50
10539;BME280;5317;49.048;8.468;2022-07-23T03:05:10;112049.66;;;-142.21;78.14
10539;BME280;5317;49.048;8.468;2022-07-23T03:07:39;112049.66;;;-142.21;77.89
10539;BME280;5317;49.048;8.468;2022-07-23T03:10:07;112049.66;;;-142.21;75.98
10539;BME280;5317;49.048;8.468;2022-07-23T03:12:34;112049.66;;;-142.21;75.24
10539;BME280;5317;49.048;8.468;2022-07-23T03:15:01;112049.66;;;-142.21;74.47
10539;BME280;5317;49.048;8.468;2022-07-23T03:17:28;112049.66;;;-142.21;75.18
10539;BME280;5317;49.048;8.468;2022-07-23T03:19:55;112049.66;;;-142.21;75.36
10539;BME280;5317;49.048;8.468;2022-07-23T03:22:22;112049.66;;;-142.21;75.53
10539;BME280;5317;49.048;8.468;2022-07-23T03:24:51;112049.66;;;-142.21;77.13
10539;BME280;5317;49.048;8.468;2022-07-23T03:27:21;112049.66;;;-142.21;76.94
10539;BME280;5317;49.048;8.468;2022-07-23T03:29:49;112049.66;;;-142.21;77.19
10539;BME280;5317;49.048;8.468;2022-07-23T03:32:16;112049.66;;;-142.21;77.68
10539;BME280;5317;49.048;8.468;2022-07-23T03:34:44;112049.66;;;-142.21;77.00
10539;BME280;5317;49.048;8.468;2022-07-23T03:37:12;112049.66;;;-142.21;77.09
10539;BME280;5317;49.048;8.468;2022-07-23T03:39:39;112049.66;;;-142.21;77.50
10539;BME280;5317;49.048;8.468;2022-07-23T03:42:08;112049.66;;;-142.21;77.59
10539;BME280;5317;49.048;8.468;2022-07-23T03:44:35;112049.66;;;-142.21;77.98
10539;BME280;5317;49.048;8.468;2022-07-23T03:47:05;112049.66;;;-142.21;78.03
10539;BME280;5317;49.048;8.468;2022-07-23T03:49:33;112049.66;;;-142.21;78.29
10539;BME280;5317;49.048;8.468;2022-07-23T03:52:00;112049.66;;;-142.21;79.41
10539;BME280;5317;49.048;8.468;2022-07-23T03:54:28;112049.66;;;-142.21;79.69
10539;BME280;5317;49.048;8.468;2022-07-23T03:56:55;112049.66;;;-142.21;80.58
10539;BME280;5317;49.048;8.468;2022-07-23T03:59:24;112049.66;;;-142.21;81.14
10539;BME280;5317;49.048;8.468;2022-07-23T04:01:51;112049.66;;;-142.21;81.22
10539;BME280;5317;49.048;8.468;2022-07-23T04:04:18;112049.66;;;-142.21;80.54
10539;BME280;5317;49.048;8.468;2022-07-23T04:06:45;112049.66;;;-142.21;80.42
10539;BME280;5317;49.048;8.468;2022-07-23T04:09:12;112049.66;;;-142.21;80.13
10539;BME280;5317;49.048;8.468;2022-07-23T04:11:39;112049.66;;;-142.21;74.27
10539;BME280;5317;49.048;8.468;2022-07-23T04:14:06;112049.66;;;-142.21;69.44
10539;BME280;5317;49.048;8.468;2022-07-23T04:16:35;112049.66;;;-142.21;70.42
10539;BME280;5317;49.048;8.468;2022-07-23T04:19:04;112049.66;;;-142.21;71.69
10539;BME280;5317;49.048;8.468;2022-07-23T04:21:31;112049.66;;;-142.21;72.80
10539;BME280;5317;49.048;8.468;2022-07-23T04:23:58;112049.66;;;-142.21;73.99
10539;BME280;5317;49.048;8.468;2022-07-23T04:26:25;112049.66;;;-142.21;74.15
10539;BME280;5317;49.048;8.468;2022-07-23T04:28:53;112049.66;;;-142.21;74.88
10539;BME280;5317;49.048;8.468;2022-07-23T04:31:20;112049.66;;;-142.21;75.27
10539;BME280;5317;49.048;8.468;2022-07-23T04:33:48;112049.66;;;-142.21;77.44
10539;BME280;5317;49.048;8.468;2022-07-23T04:36:15;112049.66;;;-142.21;78.14
10539;BME280;5317;49.048;8.468;2022-07-23T04:38:42;112049.66;;;-142.21;75.40
10539;BME280;5317;49.048;8.468;2022-07-23T04:41:09;112049.66;;;-142.21;77.63
10539;BME280;5317;49.048;8.468;2022-07-23T04:43:37;112049.66;;;-142.21;74.90
10539;BME280;5317;49.048;8.468;2022-07-23T04:46:04;112049.66;;;-142.21;73.86
10539;BME280;5317;49.048;8.468;2022-07-23T04:48:32;112049.66;;;-142.21;74.60
10539;BME280;5317;49.048;8.468;2022-07-23T04:51:00;112049.66;;;-142.21;75.65
10539;BME280;5317;49.048;8.468;2022-07-23T04:53:28;112049.66;;;-142.21;75.69
10539;BME280;5317;49.048;8.468;2022-07-23T04:55:55;112049.66;;;-142.21;78.50
10539;BME280;5317;49.048;8.468;2022-07-23T04:58:22;112049.66;;;-142.21;77.94
10539;BME280;5317;49.048;8.468;2022-07-23T05:00:49;112049.66;;;-142.21;77.70
10539;BME280;5317;49.048;8.468;2022-07-23T05:03:17;112049.66;;;-142.21;80.75
10539;BME280;5317;49.048;8.468;2022-07-23T05:05:44;112049.66;;;-142.21;83.52
10539;BME280;5317;49.048;8.468;2022-07-23T05:08:13;112049.66;;;-142.21;84.49
10539;BME280;5317;49.048;8.468;2022-07-23T05:10:40;112049.66;;;-142.21;85.01
10539;BME280;5317;49.048;8.468;2022-07-23T05:13:08;112049.66;;;-142.21;86.01
10539;BME280;5317;49.048;8.468;2022-07-23T05:15:35;112049.66;;;-142.21;86.05
10539;BME280;5317;49.048;8.468;2022-07-23T05:18:03;112049.66;;;-142.21;87.76
10539;BME280;5317;49.048;8.468;2022-07-23T05:20:30;112049.66;;;-142.21;89.00
10539;BME280;5317;49.048;8.468;2022-07-23T05:22:57;112049.66;;;-142.21;88.46
10539;BME280;5317;49.048;8.468;2022-07-23T05:25:26;112049.66;;;-142.21;89.86
10539;BME280;5317;49.048;8.468;2022-07-23T05:27:53;112049.66;;;-142.21;91.67
10539;BME280;5317;49.048;8.468;2022-07-23T05:30:21;112049.66;;;-142.21;91.24
10539;BME280;5317;49.048;8.468;2022-07-23T05:32:48;112049.66;;;-142.21;91.57
10539;BME280;5317;49.048;8.468;2022-07-23T05:35:15;112049.66;;;-142.21;91.29
10539;BME280;5317;49.048;8.468;2022-07-23T05:37:42;112049.66;;;-142.21;91.94
10539;BME280;5317;49.048;8.468;2022-07-23T05:40:11;112049.66;;;-142.21;89.96
10539;BME280;5317;49.048;8.468;2022-07-23T05:42:40;112049.66;;;-142.21;89.96
10539;BME280;5317;49.048;8.468;2022-07-23T05:45:10;112049.66;;;-142.21;91.34
10539;BME280;5317;49.048;8.468;2022-07-23T05:47:42;112049.66;;;-142.21;92.96
10539;BME280;5317;49.048;8.468;2022-07-23T05:50:10;112049.66;;;-142.21;91.61
10539;BME280;5317;49.048;8.468;2022-07-23T05:52:42;112049.66;;;-142.21;92.63
10539;BME280;5317;49.048;8.468;2022-07-23T05:55:11;112049.66;;;-142.21;92.61
10539;BME280;5317;49.048;8.468;2022-07-23T05:57:41;112049.66;;;-142.21;92.63
10539;BME280;5317;49.048;8.468;2022-07-23T06:00:10;112049.66;;;-142.21;92.71
10539;BME280;5317;49.048;8.468;2022-07-23T06:02:38;112049.66;;;-142.21;93.01
10539;BME280;5317;49.048;8.468;2022-07-23T06:05:06;112049.66;;;-142.21;94.03
10539;BME280;5317;49.048;8.468;2022-07-23T06:07:34;112049.66;;;-142.21;94.49
10539;BME280;5317;49.048;8.468;2022-07-23T06:10:02;112049.66;;;-142.21;96.34
10539;BME280;5317;49.048;8.468;2022-07-23T06:12:30;112049.66;;;-142.21;96.92
10539;BME280;5317;49.048;8.468;2022-07-23T06:14:59;112049.66;;;-142.21;98.22
10539;BME280;5317;49.048;8.468;2022-07-23T06:17:26;112049.66;;;-142.21;98.47
10539;BME280;5317;49.048;8.468;2022-07-23T06:19:54;112049.66;;;-142.21;98.02
10539;BME280;5317;49.048;8.468;2022-07-23T06:22:22;112049.66;;;-142.21;95.24
10539;BME280;5317;49.048;8.468;2022-07-23T06:24:50;112049.66;;;-142.21;96.32
10539;BME280;5317;49.048;8.468;2022-07-23T06:27:18;112049.66;;;-142.21;96.89
10539;BME280;5317;49.048;8.468;2022-07-23T06:29:45;112049.66;;;-142.21;99.32
10539;BME280;5317;49.048;8.468;2022-07-23T06:32:13;112049.66;;;-142.21;100.00
10539;BME280;5317;49.048;8.468;2022-07-23T06:34:41;112049.66;;;-142.21;99.91
10539;BME280;5317;49.048;8.468;2022-07-23T06:37:08;112049.66;;;-142.21;100.00
10539;BME280;5317;49.048;8.468;2022-07-23T06:39:35;112049.66;;;-142.21;100.00
10539;BME280;5317;49.048;8.468;2022-07-23T06:42:02;112049.66;;;-142.21;97.93
10539;BME280;5317;49.048;8.468;2022-07-23T06:44:30;112049.66;;;-142.21;98.00
10539;BME280;5317;49.048;8.468;2022-07-23T06:47:00;112049.66;;;-142.21;98.71
10539;BME280;5317;49.048;8.468;2022-07-23T06:49:29;112049.66;;;-142.21;100.00
10539;BME280;5317;49.048;8.468;2022-07-23T06:51:56;112049.66;;;-142.21;100.00
10539;BME280;5317;49.048;8.468;2022-07-23T06:54:23;112049.66;;;-142.21;100.00
10539;BME280;5317;49.048;8.468;2022-07-23T06:56:50;112049.66;;;-142.21;100.00
10539;BME280;5317;49.048;8.468;2022-07-23T06:59:17;112049.66;;;-142.21;100.00
10539;BME280;5317;49.048;8.468;2022-07-23T07:01:45;112049.66;;;-142.21;100.00
10539;BME280;5317;49.048;8.468;2022-07-23T07:04:12;112049.66;;;-142.21;100.00
10539;BME280;5317;49.048;8.468;2022-07-23T07:06:40;112049.66;;;-142.21;100.00
10539;BME280;5317;49.048;8.468;2022-07-23T07:09:08;112049.66;;;-142.21;100.00
10539;BME280;5317;49.048;8.468;2022-07-23T07:11:35;112049.66;;;-142.21;99.35
10539;BME280;5317;49.048;8.468;2022-07-23T07:14:02;112049.66;;;-142.21;98.77
10539;BME280;5317;49.048;8.468;2022-07-23T07:16:30;112049.66;;;-142.21;92.88
10539;BME280;5317;49.048;8.468;2022-07-23T07:18:57;112049.66;;;-142.21;93.57
10539;BME280;5317;49.048;8.468;2022-07-23T07:21:24;112049.66;;;-142.21;95.53
10539;BME280;5317;49.048;8.468;2022-07-23T07:23:53;112049.66;;;-142.21;94.95
10539;BME280;5317;49.048;8.468;2022-07-23T07:26:20;112049.66;;;-142.21;95.40
10539;BME280;5317;49.048;8.468;2022-07-23T07:28:47;112049.66;;;-142.21;95.86
10539;BME280;5317;49.048;8.468;2022-07-23T07:31:14;112049.66;;;-142.21;95.30
10539;BME280;5317;49.048;8.468;2022-07-23T07:33:42;112049.66;;;-142.21;95.73
10539;BME280;5317;49.048;8.468;2022-07-23T07:36:09;112049.66;;;-142.21;96.29
10539;BME280;5317;49.048;8.468;2022-07-23T07:38:39;112049.66;;;-142.21;95.07
10539;BME280;5317;49.048;8.468;2022-07-23T07:41:08;112049.66;;;-142.21;95.79
10539;BME280;5317;49.048;8.468;2022-07-23T07:43:36;112049.66;;;-142.21;93.94
10539;BME280;5317;49.048;8.468;2022-07-23T07:46:03;112049.66;;;-142.21;91.86
10539;BME280;5317;49.048;8.468;2022-07-23T07:48:31;112049.66;;;-142.21;89.37
10539;BME280;5317;49.048;8.468;2022-07-23T07:50:58;112049.66;;;-142.21;88.52
10539;BME280;5317;49.048;8.468;2022-07-23T07:53:25;112049.66;;;-142.21;87.41
10539;BME280;5317;49.048;8.468;2022-07-23T07:55:52;112049.66;;;-142.21;90.18
10539;BME280;5317;49.048;8.468;2022-07-23T07:58:21;112049.66;;;-142.21;90.47
10539;BME280;5317;49.048;8.468;2022-07-23T08:00:48;112049.66;;;-142.21;90.18
10539;BME280;5317;49.048;8.468;2022-07-23T08:03:15;112049.66;;;-142.21;88.12
10539;BME280;5317;49.048;8.468;2022-07-23T08:05:43;112049.66;;;-142.21;90.79
10539;BME280;5317;49.048;8.468;2022-07-23T08:08:13;112049.66;;;-142.21;90.18
10539;BME280;5317;49.048;8.468;2022-07-23T08:10:41;112049.66;;;-142.21;78.17
10539;BME280;5317;49.048;8.468;2022-07-23T08:13:14;112049.66;;;-142.21;84.18
10539;BME280;5317;49.048;8.468;2022-07-23T08:15:44;112049.66;;;-142.21;83.20
10539;BME280;5317;49.048;8.468;2022-07-23T08:18:11;112049.66;;;-142.21;77.71
10539;BME280;5317;49.048;8.468;2022-07-23T08:20:38;112049.66;;;-142.21;77.47
10539;BME280;5317;49.048;8.468;2022-07-23T08:23:08;112049.66;;;-142.21;80.73
10539;BME280;5317;49.048;8.468;2022-07-23T08:25:38;112049.66;;;-142.21;75.81
10539;BME280;5317;49.048;8.468;2022-07-23T08:28:08;112049.66;;;-142.21;75.57
10539;BME280;5317;49.048;8.468;2022-07-23T08:30:37;112049.66;;;-142.21;76.30
10539;BME280;5317;49.048;8.468;2022-07-23T08:33:08;112049.66;;;-142.21;75.65
10539;BME280;5317;49.048;8.468;2022-07-23T08:35:40;112049.66;;;-142.21;74.34
10539;BME280;5317;49.048;8.468;2022-07-23T08:38:10;112049.66;;;-142.21;74.87
10539;BME280;5317;49.048;8.468;2022-07-23T08:40:40;112049.66;;;-142.21;73.70
10539;BME280;5317;49.048;8.468;2022-07-23T08:43:14;112049.66;;;-142.21;74.35
10539;BME280;5317;49.048;8.468;2022-07-23T08:45:44;112049.66;;;-142.21;71.55
10539;BME280;5317;49.048;8.468;2022-07-23T08:48:15;112049.66;;;-142.21;72.25
10539;BME280;5317;49.048;8.468;2022-07-23T08:50:45;112049.66;;;-142.21;73.37
10539;BME280;5317;49.048;8.468;2022-07-23T08:53:13;112049.66;;;-142.21;71.29
10539;BME280;5317;49.048;8.468;2022-07-23T08:55:44;112049.66;;;-142.21;68.87
10539;BME280;5317;49.048;8.468;2022-07-23T08:58:12;112049.66;;;-142.21;66.51
10539;BME280;5317;49.048;8.468;2022-07-23T09:00:40;112049.66;;;-142.21;62.81
10539;BME280;5317;49.048;8.468;2022-07-23T09:03:16;112049.66;;;-142.21;69.00
10539;BME280;5317;49.048;8.468;2022-07-23T09:05:44;112049.66;;;-142.21;69.11
10539;BME280;5317;49.048;8.468;2022-07-23T09:08:13;112049.66;;;-142.21;66.63
10539;BME280;5317;49.048;8.468;2022-07-23T09:10:48;112049.66;;;-142.21;67.14
10539;BME280;5317;49.048;8.468;2022-07-23T09:13:26;112049.66;;;-142.21;68.36
10539;BME280;5317;49.048;8.468;2022-07-23T09:15:57;112049.66;;;-142.21;67.35
10539;BME280;5317;49.048;8.468;2022-07-23T09:18:49;112049.66;;;-142.21;67.34
10539;BME280;5317;49.048;8.468;2022-07-23T09:21:21;112049.66;;;-142.21;70.42
10539;BME280;5317;49.048;8.468;2022-07-23T09:23:56;112049.66;;;-142.21;68.83
10539;BME280;5317;49.048;8.468;2022-07-23T09:26:28;112049.66;;;-142.21;68.01
10539;BME280;5317;49.048;8.468;2022-07-23T09:29:01;112049.66;;;-142.21;67.75
10539;BME280;5317;49.048;8.468;2022-07-23T09:31:34;112049.66;;;-142.21;60.53
10539;BME280;5317;49.048;8.468;2022-07-23T09:34:15;112049.66;;;-142.21;55.03
10539;BME280;5317;49.048;8.468;2022-07-23T09:36:43;112049.66;;;-142.21;55.99
10539;BME280;5317;49.048;8.468;2022-07-23T09:39:13;112049.66;;;-142.21;54.91
10539;BME280;5317;49.048;8.468;2022-07-23T09:41:45;112049.66;;;-142.21;57.83
10539;BME280;5317;49.048;8.468;2022-07-23T09:44:15;112049.66;;;-142.21;59.65
10539;BME280;5317;49.048;8.468;2022-07-23T09:46:45;112049.66;;;-142.21;58.91
10539;BME280;5317;49.048;8.468;2022-07-23T09:49:20;112049.66;;;-142.21;51.53
10539;BME280;5317;49.048;8.468;2022-07-23T09:51:54;112049.66;;;-142.21;49.42
10539;BME280;5317;49.048;8.468;2022-07-23T09:54:34;112049.66;;;-142.21;50.25
10539;BME280;5317;49.048;8.468;2022-07-23T09:57:05;112049.66;;;-142.21;50.42
10539;BME280;5317;49.048;8.468;2022-07-23T09:59:36;112049.66;;;-142.21;52.37
10539;BME280;5317;49.048;8.468;2022-07-23T10:02:06;112049.66;;;-142.21;50.29
10539;BME280;5317;49.048;8.468;2022-07-23T10:04:35;112049.66;;;-142.21;49.56
10539;BME280;5317;49.048;8.468;2022-07-23T10:07:05;112049.66;;;-142.21;46.46
10539;BME280;5317;49.048;8.468;2022-07-23T10:09:35;112049.66;;;-142.21;46.83
10539;BME280;5317;49.048;8.468;2022-07-23T10:12:06;112049.66;;;-142.21;50.37
10539;BME280;5317;49.048;8.468;2022-07-23T10:14:44;112049.66;;;-142.21;47.64
10539;BME280;5317;49.048;8.468;2022-07-23T10:17:11;112049.66;;;-142.21;46.69
10539;BME280;5317;49.048;8.468;2022-07-23T10:19:40;112049.66;;;-142.21;47.92
10539;BME280;5317;49.048;8.468;2022-07-23T10:22:11;112049.66;;;-142.21;47.03
10539;BME280;5317;49.048;8.468;2022-07-23T10:25:11;112049.66;;;-142.21;42.59
10539;BME280;5317;49.048;8.468;2022-07-23T10:28:04;112049.66;;;-142.21;44.99
10539;BME280;5317;49.048;8.468;2022-07-23T10:30:41;112049.66;;;-142.21;47.31
10539;BME280;5317;49.048;8.468;2022-07-23T10:33:24;112049.66;;;-142.21;43.72
10539;BME280;5317;49.048;8.468;2022-07-23T10:36:02;112049.66;;;-142.21;45.89
10539;BME280;5317;49.048;8.468;2022-07-23T10:38:40;112049.66;;;-142.21;44.91
10539;BME280;5317;49.048;8.468;2022-07-23T10:41:10;112049.66;;;-142.21;43.81
10539;BME280;5317;49.048;8.468;2022-07-23T10:43:37;112049.66;;;-142.21;44.22
10539;BME280;5317;49.048;8.468;2022-07-23T10:46:25;112049.66;;;-142.21;43.12
10539;BME280;5317;49.048;8.468;2022-07-23T10:49:26;112049.66;;;-142.21;45.42
10539;BME280;5317;49.048;8.468;2022-07-23T10:52:26;112049.66;;;-142.21;48.07
10539;BME280;5317;49.048;8.468;2022-07-23T10:54:56;112049.66;;;-142.21;43.34
10539;BME280;5317;49.048;8.468;2022-07-23T10:57:49;112049.66;;;-142.21;42.87
10539;BME280;5317;49.048;8.468;2022-07-23T11:00:22;112049.66;;;-142.21;46.43
10539;BME280;5317;49.048;8.468;2022-07-23T11:02:53;112049.66;;;-142.21;44.22
10539;BME280;5317;49.048;8.468;2022-07-23T11:05:22;112049.66;;;-142.21;46.83
10539;BME280;5317;49.048;8.468;2022-07-23T11:08:13;112049.66;;;-142.21;45.59
10539;BME280;5317;49.048;8.468;2022-07-23T11:10:49;112049.66;;;-142.21;44.88
10539;BME280;5317;49.048;8.468;2022-07-23T11:13:38;112049.66;;;-142.21;43.61
10539;BME280;5317;49.048;8.468;2022-07-23T11:16:24;112049.66;;;-142.21;44.02
10539;BME280;5317;49.048;8.468;2022-07-23T11:19:06;112049.66;;;-142.21;43.94
10539;BME280;5317;49.048;8.468;2022-07-23T11:21:52;112049.66;;;-142.21;44.40
10539;BME280;5317;49.048;8.468;2022-07-23T11:24:23;112049.66;;;-142.21;46.32
10539;BME280;5317;49.048;8.468;2022-07-23T11:27:02;112049.66;;;-142.21;43.67
10539;BME280;5317;49.048;8.468;2022-07-23T11:29:49;112049.66;;;-142.21;45.72
10539;BME280;5317;49.048;8.468;2022-07-23T11:32:36;112049.66;;;-142.21;43.99
10539;BME280;5317;49.048;8.468;2022-07-23T11:35:24;112049.66;;;-142.21;44.47
10539;BME280;5317;49.048;8.468;2022-07-23T11:37:53;112049.66;;;-142.21;42.87
10539;BME280;5317;49.048;8.468;2022-07-23T11:40:26;112049.66;;;-142.21;42.32
10539;BME280;5317;49.048;8.468;2022-07-23T11:42:57;112049.66;;;-142.21;44.01
10539;BME280;5317;49.048;8.468;2022-07-23T11:45:31;112049.66;;;-142.21;44.85
10539;BME280;5317;49.048;8.468;2022-07-23T11:47:59;112049.66;;;-142.21;45.50
10539;BME280;5317;49.048;8.468;2022-07-23T11:50:26;112049.66;;;-142.21;45.90
10539;BME280;5317;49.048;8.468;2022-07-23T11:52:54;112049.66;;;-142.21;46.24
10539;BME280;5317;49.048;8.468;2022-07-23T11:55:22;112049.66;;;-142.21;45.84
10539;BME280;5317;49.048;8.468;2022-07-23T11:57:52;112049.66;;;-142.21;45.11
10539;BME280;5317;49.048;8.468;2022-07-23T12:00:22;112049.66;;;-142.21;43.38
10539;BME280;5317;49.048;8.468;2022-07-23T12:02:52;112049.66;;;-142.21;43.12
10539;BME280;5317;49.048;8.468;2022-07-23T12:05:23;112049.66;;;-142.21;43.91
10539;BME280;5317;49.048;8.468;2022-07-23T12:07:52;112049.66;;;-142.21;44.77
10539;BME280;5317;49.048;8.468;2022-07-23T12:10:22;112049.66;;;-142.21;43.15
10539;BME280;5317;49.048;8.468;2022-07-23T12:12:54;112049.66;;;-142.21;40.65
10539;BME280;5317;49.048;8.468;2022-07-23T12:15:25;112049.66;;;-142.21;39.74
10539;BME280;5317;49.048;8.468;2022-07-23T12:17:54;112049.66;;;-142.21;41.32
10539;BME280;5317;49.048;8.468;2022-07-23T12:20:25;112049.66;;;-142.21;39.47
10539;BME280;5317;49.048;8.468;2022-07-23T12:22:56;112049.66;;;-142.21;41.41
10539;BME280;5317;49.048;8.468;2022-07-23T12:25:27;112049.66;;;-142.21;42.48
10539;BME280;5317;49.048;8.468;2022-07-23T12:28:03;112049.66;;;-142.21;41.81
10539;BME280;5317;49.048;8.468;2022-07-23T12:30:34;112049.66;;;-142.21;40.75
10539;BME280;5317;49.048;8.468;2022-07-23T12:33:03;112049.66;;;-142.21;39.33
10539;BME280;5317;49.048;8.468;2022-07-23T12:35:35;112049.66;;;-142.21;39.11
10539;BME280;5317;49.048;8.468;2022-07-23T12:38:05;112049.66;;;-142.21;39.21
10539;BME280;5317;49.048;8.468;2022-07-23T12:40:36;112049.66;;;-142.21;39.62
10539;BME280;5317;49.048;8.468;2022-07-23T12:43:08;112049.66;;;-142.21;39.53
10539;BME280;5317;49.048;8.468;2022-07-23T12:45:46;112049.66;;;-142.21;40.08
10539;BME280;5317;49.048;8.468;2022-07-23T12:48:22;112049.66;;;-142.21;40.63
10539;BME280;5317;49.048;8.468;2022-07-23T12:50:54;112049.66;;;-142.21;40.27
10539;BME280;5317;49.048;8.468;2022-07-23T12:53:24;112049.66;;;-142.21;41.03